Alice, Texas
Current Conditions -  °F | °C
As of 1:53 AM on Sunday 26 Oct 2014 (Local Time) from KALI Reporting Station
Clear Clear  
Wind Chill: 62°   Ceiling: Unl
Heat Index: 62°   Visibility: 10mi
Dew Point: 59°   Wind: 3mph
Humidity: 90%   Direction: 210°SSW
Pressure: 30.07"   Gusts: NA
Location:  27.75°N, 98.06°W
Report Text: KALI 260653Z AUTO 21003KT 10SM CLR 17/15 A3007 RMK AO2 SLP178 T01670150
Loading
Personal Weather Stations






























Interactive Weather Map
Tropical Storm Tracking
New forecast layout! Learn more

10-Day Weather Forecast

Advertisements
Track Severe Weather on mobile